createdAt,value
2018-07-09T00:01:06.152Z,22.03
2018-07-09T00:03:12.488Z,22.01
2018-07-09T00:05:17.786Z,22.01
2018-07-09T00:07:23.092Z,22.01
2018-07-09T00:09:28.518Z,21.96
2018-07-09T00:11:33.873Z,21.89
2018-07-09T00:13:39.555Z,21.80
2018-07-09T00:15:45.033Z,21.71
2018-07-09T00:17:50.463Z,21.63
2018-07-09T00:19:55.913Z,21.55
2018-07-09T00:22:01.336Z,21.49
2018-07-09T00:24:07.167Z,21.43
2018-07-09T00:26:12.546Z,21.37
2018-07-09T00:28:18.994Z,21.32
2018-07-09T00:30:24.593Z,21.27
2018-07-09T00:32:29.924Z,21.24
2018-07-09T00:34:35.322Z,21.27
2018-07-09T00:36:40.777Z,21.34
2018-07-09T00:38:46.179Z,21.43
2018-07-09T00:40:51.464Z,21.49
2018-07-09T00:42:56.896Z,21.52
2018-07-09T00:45:02.295Z,21.50
2018-07-09T00:47:07.732Z,21.50
2018-07-09T00:49:13.407Z,21.53
2018-07-09T00:51:18.836Z,21.57
2018-07-09T00:53:24.232Z,21.62
2018-07-09T00:55:29.776Z,21.66
2018-07-09T00:57:35.532Z,21.68
2018-07-09T00:59:41.045Z,21.61
2018-07-09T01:01:46.434Z,21.48
2018-07-09T01:03:51.868Z,21.32
2018-07-09T01:05:57.320Z,21.19
2018-07-09T01:08:02.720Z,21.06
2018-07-09T01:10:08.151Z,20.97
2018-07-09T01:12:13.921Z,20.89
2018-07-09T01:14:19.302Z,20.83
2018-07-09T01:16:24.800Z,20.78
2018-07-09T01:18:30.263Z,20.79
2018-07-09T01:20:35.663Z,20.77
2018-07-09T01:22:41.060Z,20.75
2018-07-09T01:24:46.584Z,20.70
2018-07-09T01:26:52.267Z,20.69
2018-07-09T01:28:57.751Z,20.68
2018-07-09T01:31:03.139Z,20.63
2018-07-09T01:33:08.580Z,20.59
2018-07-09T01:35:14.564Z,20.61
2018-07-09T01:37:20.066Z,20.60
2018-07-09T01:39:25.520Z,20.60
2018-07-09T01:41:30.941Z,20.58
2018-07-09T01:43:36.326Z,20.56
2018-07-09T01:45:41.657Z,20.51
2018-07-09T01:47:47.085Z,20.46
2018-07-09T01:49:52.462Z,20.43
2018-07-09T01:51:57.841Z,20.41
2018-07-09T01:54:03.412Z,20.38
2018-07-09T01:56:08.844Z,20.30
2018-07-09T01:58:14.234Z,20.25
2018-07-09T02:00:19.566Z,20.19
2018-07-09T02:02:25.190Z,20.15
2018-07-09T02:04:30.569Z,20.15
2018-07-09T02:06:35.917Z,20.14
2018-07-09T02:08:41.793Z,20.13
2018-07-09T02:10:47.128Z,20.10
2018-07-09T02:12:52.640Z,20.08
2018-07-09T02:14:58.055Z,20.04
2018-07-09T02:17:03.473Z,19.99
2018-07-09T02:19:08.785Z,19.91
2018-07-09T02:21:14.195Z,19.85
2018-07-09T02:23:19.604Z,19.78
2018-07-09T02:25:24.778Z,19.70
2018-07-09T02:27:30.512Z,19.63
2018-07-09T02:29:35.957Z,19.59
2018-07-09T02:31:41.384Z,19.57
2018-07-09T02:33:46.827Z,19.57
2018-07-09T02:35:52.181Z,19.57
2018-07-09T02:37:58.254Z,19.56
2018-07-09T02:40:03.733Z,19.55
2018-07-09T02:42:09.278Z,19.52
2018-07-09T02:44:14.751Z,19.56
2018-07-09T02:46:20.126Z,19.62
2018-07-09T02:48:25.584Z,19.64
2018-07-09T02:50:30.933Z,19.63
2018-07-09T02:52:36.397Z,19.59
2018-07-09T02:54:41.873Z,19.57
2018-07-09T02:56:47.361Z,19.56
2018-07-09T02:58:52.789Z,19.57
2018-07-09T03:00:57.919Z,19.59
2018-07-09T03:03:03.144Z,19.58
2018-07-09T03:05:08.714Z,19.54
2018-07-09T03:07:14.171Z,19.50
2018-07-09T03:09:19.722Z,19.49
2018-07-09T03:11:25.334Z,19.49
2018-07-09T03:13:30.786Z,19.47
2018-07-09T03:15:36.242Z,19.44
2018-07-09T03:17:41.681Z,19.40
2018-07-09T03:19:47.096Z,19.38
2018-07-09T03:21:52.540Z,19.35
2018-07-09T03:23:58.081Z,19.34
2018-07-09T03:26:03.449Z,19.32
2018-07-09T03:28:08.941Z,19.34
2018-07-09T03:30:14.410Z,19.35
2018-07-09T03:32:19.868Z,19.37
2018-07-09T03:34:25.388Z,19.42
2018-07-09T03:36:30.833Z,19.46
2018-07-09T03:38:36.498Z,19.43
2018-07-09T03:40:42.042Z,19.36
2018-07-09T03:42:47.448Z,19.31
2018-07-09T03:44:52.890Z,19.26
2018-07-09T03:46:58.308Z,19.25
2018-07-09T03:49:03.771Z,19.27
2018-07-09T03:51:09.166Z,19.30
2018-07-09T03:53:14.637Z,19.32
2018-07-09T03:55:20.196Z,19.32
2018-07-09T03:57:25.570Z,19.27
2018-07-09T03:59:31.039Z,19.21
2018-07-09T04:01:36.548Z,19.17
2018-07-09T04:03:41.949Z,19.16
2018-07-09T04:05:47.571Z,19.14
2018-07-09T04:07:53.209Z,19.12
2018-07-09T04:09:58.232Z,19.10
2018-07-09T04:12:03.280Z,19.10
2018-07-09T04:14:08.770Z,19.09
2018-07-09T04:16:14.323Z,19.05
2018-07-09T04:18:23.268Z,19.03
2018-07-09T04:20:28.759Z,19.00
2018-07-09T04:22:34.277Z,19.00
2018-07-09T04:24:39.909Z,19.07
2018-07-09T04:26:45.256Z,19.11
2018-07-09T04:28:50.845Z,19.14
2018-07-09T04:30:56.270Z,19.18
2018-07-09T04:33:01.673Z,19.20
2018-07-09T04:35:07.145Z,19.22
2018-07-09T04:37:12.540Z,19.27
2018-07-09T04:39:18.000Z,19.31
2018-07-09T04:41:23.462Z,19.34
2018-07-09T04:43:28.880Z,19.40
2018-07-09T04:45:34.276Z,19.47
2018-07-09T04:47:39.643Z,19.50
2018-07-09T04:49:45.037Z,19.50
2018-07-09T04:51:50.585Z,19.51
2018-07-09T04:53:56.192Z,19.53
2018-07-09T04:56:01.562Z,19.58
2018-07-09T04:58:07.015Z,19.65
2018-07-09T05:00:12.398Z,19.73
2018-07-09T05:02:17.779Z,19.78
2018-07-09T05:04:23.257Z,19.85
2018-07-09T05:06:28.724Z,19.93
2018-07-09T05:08:34.172Z,19.99
2018-07-09T05:10:39.562Z,20.08
2018-07-09T05:12:44.697Z,20.18
2018-07-09T05:14:50.184Z,20.28
2018-07-09T05:16:55.510Z,20.37
2018-07-09T05:19:01.091Z,20.44
2018-07-09T05:21:06.576Z,20.48
2018-07-09T05:23:12.053Z,20.54
2018-07-09T05:25:17.557Z,20.57
2018-07-09T05:27:23.048Z,20.62
2018-07-09T05:29:28.472Z,20.68
2018-07-09T05:31:33.871Z,20.73
2018-07-09T05:33:39.008Z,20.82
2018-07-09T05:35:44.339Z,20.92
2018-07-09T05:37:50.018Z,21.01
2018-07-09T05:39:55.689Z,21.08
2018-07-09T05:42:01.062Z,21.14
2018-07-09T05:44:06.486Z,21.18
2018-07-09T05:46:13.029Z,21.24
2018-07-09T05:48:18.657Z,21.27
2018-07-09T05:50:24.078Z,21.30
2018-07-09T05:52:29.845Z,21.35
2018-07-09T05:54:35.491Z,21.40
2018-07-09T05:56:41.063Z,21.47
2018-07-09T05:58:46.796Z,21.57
2018-07-09T06:00:52.305Z,21.65
2018-07-09T06:02:57.759Z,21.73
2018-07-09T06:05:03.330Z,21.83
2018-07-09T06:07:08.640Z,21.92
2018-07-09T06:09:14.284Z,22.03
2018-07-09T06:11:19.710Z,22.11
2018-07-09T06:13:25.202Z,22.26
2018-07-09T06:15:30.775Z,22.61
2018-07-09T06:17:36.295Z,23.24
2018-07-09T06:19:41.909Z,24.01
2018-07-09T06:21:47.273Z,24.90
2018-07-09T06:23:52.688Z,25.75
2018-07-09T06:25:58.055Z,26.58
2018-07-09T06:28:03.488Z,27.42
2018-07-09T06:30:09.089Z,28.19
2018-07-09T06:32:14.462Z,28.93
2018-07-09T06:34:19.895Z,29.57
2018-07-09T06:36:25.552Z,30.19
2018-07-09T06:38:31.116Z,30.73
2018-07-09T06:40:36.617Z,31.26
2018-07-09T06:42:42.006Z,31.69
2018-07-09T06:44:47.568Z,32.09
2018-07-09T06:46:52.867Z,32.43
2018-07-09T06:48:58.296Z,32.70
2018-07-09T06:51:03.703Z,32.93
2018-07-09T06:53:09.248Z,33.20
2018-07-09T06:55:14.725Z,33.46
2018-07-09T06:57:20.243Z,33.75
2018-07-09T06:59:25.543Z,34.03
2018-07-09T07:01:31.060Z,34.23
2018-07-09T07:03:36.666Z,34.14
2018-07-09T07:05:42.259Z,34.01
2018-07-09T07:07:47.644Z,34.04
2018-07-09T07:09:53.378Z,34.05
2018-07-09T07:11:58.846Z,34.06
2018-07-09T07:14:04.320Z,34.01
2018-07-09T07:16:09.661Z,34.03
2018-07-09T07:18:14.990Z,34.07
2018-07-09T07:20:20.472Z,34.13
2018-07-09T07:22:25.783Z,34.32
2018-07-09T07:24:31.266Z,34.50
2018-07-09T07:26:36.737Z,34.63
2018-07-09T07:28:42.115Z,34.68
2018-07-09T07:30:47.612Z,34.67
2018-07-09T07:32:53.037Z,34.56
2018-07-09T07:34:58.322Z,34.56
2018-07-09T07:37:03.691Z,34.60
2018-07-09T07:39:09.056Z,34.73
2018-07-09T07:41:14.445Z,34.81
2018-07-09T07:43:19.991Z,34.89
2018-07-09T07:45:25.345Z,34.99
2018-07-09T07:47:30.939Z,35.13
2018-07-09T07:49:36.308Z,35.12
2018-07-09T07:51:41.708Z,34.93
2018-07-09T07:53:47.087Z,34.72
2018-07-09T07:55:52.461Z,34.44
2018-07-09T07:57:57.825Z,34.08
2018-07-09T08:00:03.310Z,33.55
2018-07-09T08:02:09.004Z,33.03
2018-07-09T08:04:14.401Z,32.55
2018-07-09T08:06:19.729Z,32.12
2018-07-09T08:08:25.121Z,31.74
2018-07-09T08:10:30.499Z,31.52
2018-07-09T08:13:31.303Z,31.30
2018-07-09T08:14:41.436Z,31.13
2018-07-09T08:16:46.863Z,30.97
2018-07-09T08:18:51.934Z,30.77
2018-07-09T08:20:57.318Z,30.55
2018-07-09T08:23:02.433Z,30.38
2018-07-09T08:25:07.626Z,30.27
2018-07-09T08:27:12.904Z,30.21
2018-07-09T08:29:18.296Z,30.19
2018-07-09T08:31:24.036Z,30.11
2018-07-09T08:33:29.373Z,30.03
2018-07-09T08:35:34.899Z,29.99
2018-07-09T08:37:40.323Z,29.92
2018-07-09T08:39:45.546Z,29.85
2018-07-09T08:41:50.811Z,29.79
2018-07-09T08:43:56.279Z,29.72
2018-07-09T08:46:02.219Z,29.67
2018-07-09T08:48:07.588Z,29.64
2018-07-09T08:50:13.061Z,29.62
2018-07-09T08:52:18.402Z,29.57
2018-07-09T08:54:23.786Z,29.55
2018-07-09T08:56:29.148Z,29.56
2018-07-09T08:58:34.486Z,29.52
2018-07-09T09:00:39.835Z,29.48
2018-07-09T09:02:45.160Z,29.43
2018-07-09T09:04:50.609Z,29.45
2018-07-09T09:06:56.349Z,29.48
2018-07-09T09:09:01.709Z,29.52
2018-07-09T09:11:06.998Z,29.50
2018-07-09T09:13:12.319Z,29.50
2018-07-09T09:15:17.829Z,29.50
2018-07-09T09:17:23.179Z,29.50
2018-07-09T09:19:28.575Z,29.47
2018-07-09T09:21:33.912Z,29.47
2018-07-09T09:23:39.257Z,29.48
2018-07-09T09:25:44.611Z,29.44
2018-07-09T09:27:50.349Z,29.50
2018-07-09T09:29:55.689Z,29.52
2018-07-09T09:32:01.044Z,29.53
2018-07-09T09:34:06.461Z,29.52
2018-07-09T09:36:11.863Z,29.47
2018-07-09T09:38:17.178Z,29.40
2018-07-09T09:40:22.541Z,29.36
2018-07-09T09:42:27.883Z,29.39
2018-07-09T09:44:33.176Z,29.46
2018-07-09T09:46:39.003Z,29.51
2018-07-09T09:48:44.380Z,29.51
2018-07-09T09:50:51.325Z,29.58
2018-07-09T09:52:56.384Z,29.58
2018-07-09T09:55:01.719Z,29.55
2018-07-09T09:57:07.157Z,29.50
2018-07-09T09:59:12.501Z,29.50
2018-07-09T10:01:17.872Z,29.51
2018-07-09T10:03:23.197Z,29.54
2018-07-09T10:05:28.563Z,29.59
2018-07-09T10:07:34.008Z,29.64
2018-07-09T10:09:39.393Z,29.69
2018-07-09T10:11:44.853Z,29.71
2018-07-09T10:13:50.472Z,29.75
2018-07-09T10:15:56.407Z,29.80
2018-07-09T10:18:01.782Z,29.86
2018-07-09T10:20:07.199Z,29.88
2018-07-09T10:22:12.528Z,29.90
2018-07-09T10:24:17.949Z,29.90
2018-07-09T10:26:23.012Z,29.89
2018-07-09T10:28:28.323Z,29.89
2018-07-09T10:30:33.662Z,29.92
2018-07-09T10:32:39.079Z,29.91
2018-07-09T10:34:44.385Z,29.89
2018-07-09T10:36:50.246Z,29.89
2018-07-09T10:38:55.839Z,29.93
2018-07-09T10:41:01.304Z,29.95
2018-07-09T10:43:06.690Z,29.97
2018-07-09T10:45:11.697Z,30.02
2018-07-09T10:47:16.934Z,30.06
2018-07-09T10:49:22.310Z,30.10
2018-07-09T10:51:27.616Z,30.09
2018-07-09T10:53:33.031Z,30.07
2018-07-09T10:55:38.472Z,30.10
2018-07-09T10:57:43.795Z,30.15
2018-07-09T10:59:50.781Z,30.17
2018-07-09T11:01:56.235Z,30.15
2018-07-09T11:04:01.560Z,30.14
2018-07-09T11:06:07.118Z,30.18
2018-07-09T11:08:12.682Z,30.22
2018-07-09T11:10:18.036Z,30.21
2018-07-09T11:12:23.388Z,30.19
2018-07-09T11:14:28.743Z,30.19
2018-07-09T11:16:34.084Z,30.13
2018-07-09T11:18:39.475Z,30.14
2018-07-09T11:20:44.888Z,30.15
2018-07-09T11:22:50.233Z,30.14
2018-07-09T11:24:55.147Z,30.13
2018-07-09T11:27:00.429Z,30.13
2018-07-09T11:29:05.816Z,30.11
2018-07-09T11:31:11.221Z,30.14
2018-07-09T11:33:16.596Z,30.16
2018-07-09T11:35:21.922Z,30.18
2018-07-09T11:37:27.352Z,30.21
2018-07-09T11:39:32.743Z,30.18
2018-07-09T11:41:38.089Z,30.20
2018-07-09T11:43:43.372Z,30.20
2018-07-09T11:45:48.798Z,30.20
2018-07-09T11:47:54.131Z,30.23
2018-07-09T11:49:59.503Z,30.30
2018-07-09T11:52:04.916Z,30.35
2018-07-09T11:54:10.228Z,30.35
2018-07-09T11:56:15.620Z,30.39
2018-07-09T11:58:21.048Z,30.39
2018-07-09T12:00:26.362Z,30.37
2018-07-09T12:02:31.732Z,30.38
2018-07-09T12:04:37.129Z,30.43
2018-07-09T12:06:42.528Z,30.44
2018-07-09T12:08:47.853Z,30.44
2018-07-09T12:10:53.233Z,30.47
2018-07-09T12:12:58.606Z,30.53
2018-07-09T12:15:04.092Z,30.58
2018-07-09T12:17:09.676Z,30.61
2018-07-09T12:19:15.541Z,30.63
2018-07-09T12:21:21.099Z,30.66
2018-07-09T12:23:26.087Z,30.75
2018-07-09T12:25:31.389Z,30.78
2018-07-09T12:27:36.699Z,30.82
2018-07-09T12:29:42.052Z,30.81
2018-07-09T12:31:47.483Z,30.77
2018-07-09T12:33:52.810Z,30.74
2018-07-09T12:35:58.221Z,30.76
2018-07-09T12:38:03.604Z,30.75
2018-07-09T12:40:09.037Z,30.77
2018-07-09T12:42:14.405Z,30.80
2018-07-09T12:44:19.793Z,30.84
2018-07-09T12:46:25.264Z,30.89
2018-07-09T12:48:30.574Z,30.95
2018-07-09T12:50:35.847Z,30.96
2018-07-09T12:52:41.190Z,30.93
2018-07-09T12:54:46.520Z,30.91
2018-07-09T12:56:52.087Z,30.91
2018-07-09T12:58:57.447Z,30.94
2018-07-09T13:01:02.809Z,30.95
2018-07-09T13:03:08.178Z,30.94
2018-07-09T13:05:13.568Z,30.92
2018-07-09T13:07:18.967Z,30.91
2018-07-09T13:09:24.341Z,30.93
2018-07-09T13:11:29.912Z,30.95
2018-07-09T13:13:35.289Z,30.98
2018-07-09T13:15:40.711Z,31.03
2018-07-09T13:17:46.073Z,31.09
2018-07-09T13:19:51.409Z,31.16
2018-07-09T13:21:56.980Z,31.20
2018-07-09T13:24:02.448Z,31.22
2018-07-09T13:26:07.839Z,31.23
2018-07-09T13:28:13.223Z,31.27
2018-07-09T13:30:18.665Z,31.28
2018-07-09T13:32:24.122Z,31.29
2018-07-09T13:34:29.508Z,31.30
2018-07-09T13:36:34.963Z,31.33
2018-07-09T13:38:40.730Z,31.34
2018-07-09T13:40:46.147Z,31.37
2018-07-09T13:42:51.589Z,31.38
2018-07-09T13:44:57.009Z,31.38
2018-07-09T13:47:02.360Z,31.43
2018-07-09T13:49:08.513Z,31.47
2018-07-09T13:51:13.825Z,31.51
2018-07-09T13:53:19.730Z,31.53
2018-07-09T13:55:25.152Z,31.51
2018-07-09T13:57:30.613Z,31.53
2018-07-09T13:59:36.041Z,31.54
2018-07-09T14:01:41.432Z,31.55
2018-07-09T14:03:46.853Z,31.56
2018-07-09T14:05:52.524Z,31.59
2018-07-09T14:07:57.881Z,31.58
2018-07-09T14:10:03.335Z,31.58
2018-07-09T14:12:09.037Z,31.60
2018-07-09T14:14:14.373Z,31.60
2018-07-09T14:16:19.754Z,31.58
2018-07-09T14:18:25.096Z,31.59
2018-07-09T14:20:36.465Z,31.59
2018-07-09T14:22:42.121Z,31.55
2018-07-09T14:24:47.560Z,31.58
2018-07-09T14:26:53.022Z,31.60
2018-07-09T14:28:58.416Z,31.59
2018-07-09T14:31:03.889Z,31.59
2018-07-09T14:33:09.472Z,31.59
2018-07-09T14:35:14.876Z,31.63
2018-07-09T14:37:20.259Z,31.66
2018-07-09T14:39:26.088Z,31.65
2018-07-09T14:41:31.743Z,31.61
2018-07-09T14:43:37.184Z,31.59
2018-07-09T14:45:42.788Z,31.64
2018-07-09T14:47:47.922Z,31.70
2018-07-09T14:49:53.265Z,31.75
2018-07-09T14:51:58.723Z,31.79
2018-07-09T14:54:04.211Z,31.78
2018-07-09T14:56:09.602Z,31.79
2018-07-09T14:58:15.067Z,31.84
2018-07-09T15:00:20.490Z,31.91
2018-07-09T15:02:25.996Z,31.97
2018-07-09T15:04:31.406Z,32.04
2018-07-09T15:06:36.808Z,32.08
2018-07-09T15:08:42.316Z,32.13
2018-07-09T15:10:47.815Z,32.12
2018-07-09T15:12:53.233Z,32.09
2018-07-09T15:14:58.689Z,32.08
2018-07-09T15:17:04.941Z,32.06
2018-07-09T15:19:10.330Z,31.96
2018-07-09T15:21:15.705Z,31.89
2018-07-09T15:23:21.272Z,31.84
2018-07-09T15:25:26.742Z,31.80
2018-07-09T15:27:32.091Z,31.77
2018-07-09T15:29:37.161Z,31.75
2018-07-09T15:31:59.311Z,31.72
2018-07-09T15:34:04.861Z,31.65
2018-07-09T15:36:10.525Z,31.66
2018-07-09T15:38:16.024Z,31.65
2018-07-09T15:40:21.524Z,31.61
2018-07-09T15:42:27.027Z,31.60
2018-07-09T15:44:32.400Z,31.63
2018-07-09T15:46:37.851Z,31.67
2018-07-09T15:48:42.969Z,31.73
2018-07-09T15:50:48.416Z,31.74
2018-07-09T15:52:53.581Z,31.72
2018-07-09T15:54:59.043Z,31.71
2018-07-09T15:57:04.630Z,31.64
2018-07-09T15:59:10.003Z,31.56
2018-07-09T16:01:15.467Z,31.51
2018-07-09T16:03:20.865Z,31.48
2018-07-09T16:05:26.226Z,31.44
2018-07-09T16:07:31.704Z,31.45
2018-07-09T16:09:37.059Z,31.44
2018-07-09T16:11:42.505Z,31.43
2018-07-09T16:13:48.807Z,31.45
2018-07-09T16:15:54.192Z,31.46
2018-07-09T16:17:59.587Z,31.46
2018-07-09T16:20:04.969Z,31.44
2018-07-09T16:22:10.377Z,31.38
2018-07-09T16:24:15.830Z,31.36
2018-07-09T16:26:21.220Z,31.35
2018-07-09T16:28:26.614Z,31.31
2018-07-09T16:30:32.013Z,31.30
2018-07-09T16:32:37.342Z,31.32
2018-07-09T16:34:42.723Z,31.31
2018-07-09T16:36:48.175Z,31.29
2018-07-09T16:38:53.620Z,31.29
2018-07-09T16:40:58.846Z,31.32
2018-07-09T16:43:04.175Z,31.30
2018-07-09T16:45:09.572Z,31.33
2018-07-09T16:47:14.939Z,31.34
2018-07-09T16:49:20.325Z,31.32
2018-07-09T16:51:25.774Z,31.28
2018-07-09T16:53:31.181Z,31.24
2018-07-09T16:55:36.724Z,31.21
2018-07-09T16:57:42.149Z,31.19
2018-07-09T16:59:47.602Z,31.17
2018-07-09T17:01:53.111Z,31.13
2018-07-09T17:03:58.524Z,31.15
2018-07-09T17:06:03.878Z,31.15
2018-07-09T17:08:10.161Z,31.10
2018-07-09T17:10:15.556Z,31.04
2018-07-09T17:12:20.948Z,31.01
2018-07-09T17:14:26.390Z,30.99
2018-07-09T17:16:31.809Z,30.98
2018-07-09T17:18:37.290Z,30.95
2018-07-09T17:20:42.773Z,30.95
2018-07-09T17:22:48.207Z,30.92
2018-07-09T17:24:53.697Z,30.85
2018-07-09T17:26:59.287Z,30.81
2018-07-09T17:29:04.555Z,30.82
2018-07-09T17:31:09.911Z,30.85
2018-07-09T17:33:15.346Z,30.81
2018-07-09T17:35:20.700Z,30.75
2018-07-09T17:37:26.109Z,30.69
2018-07-09T17:39:31.445Z,30.66
2018-07-09T17:41:36.913Z,30.61
2018-07-09T17:43:42.249Z,30.56
2018-07-09T17:45:47.805Z,30.50
2018-07-09T17:47:53.284Z,30.46
2018-07-09T17:49:58.868Z,30.38
2018-07-09T17:52:04.307Z,30.29
2018-07-09T17:54:09.858Z,30.22
2018-07-09T17:56:15.255Z,30.16
2018-07-09T17:58:20.778Z,30.13
2018-07-09T18:00:26.163Z,30.11
2018-07-09T18:02:31.562Z,30.05
2018-07-09T18:04:36.981Z,29.98
2018-07-09T18:06:42.387Z,29.92
2018-07-09T18:08:47.443Z,29.86
2018-07-09T18:10:52.839Z,29.83
2018-07-09T18:12:58.822Z,29.79
2018-07-09T18:15:04.305Z,29.75
2018-07-09T18:17:09.830Z,29.71
2018-07-09T18:19:15.243Z,29.65
2018-07-09T18:21:20.842Z,29.59
2018-07-09T18:23:26.290Z,29.53
2018-07-09T18:25:31.903Z,29.50
2018-07-09T18:27:37.252Z,29.45
2018-07-09T18:29:42.632Z,29.41
2018-07-09T18:31:48.059Z,29.37
2018-07-09T18:33:53.428Z,29.33
2018-07-09T18:35:58.836Z,29.28
2018-07-09T18:38:04.271Z,29.25
2018-07-09T18:40:09.737Z,29.21
2018-07-09T18:42:15.157Z,29.19
2018-07-09T18:44:20.603Z,29.14
2018-07-09T18:46:26.021Z,29.11
2018-07-09T18:48:31.497Z,29.06
2018-07-09T18:50:36.993Z,28.99
2018-07-09T18:52:45.244Z,28.96
2018-07-09T18:54:51.708Z,28.91
2018-07-09T18:56:57.409Z,28.88
2018-07-09T18:59:02.903Z,28.83
2018-07-09T19:01:08.423Z,28.77
2018-07-09T19:03:13.843Z,28.71
2018-07-09T19:05:21.464Z,28.64
2018-07-09T19:07:32.258Z,28.59
2018-07-09T19:09:38.183Z,28.53
2018-07-09T19:11:43.895Z,28.50
2018-07-09T19:13:49.466Z,28.44
2018-07-09T19:15:55.020Z,28.43
2018-07-09T19:18:19.270Z,28.39
2018-07-09T19:22:36.472Z,28.35
2018-07-09T19:24:40.110Z,28.22
2018-07-09T19:26:44.122Z,28.21
2018-07-09T19:28:47.775Z,28.19
2018-07-09T19:30:51.350Z,28.16
2018-07-09T19:32:54.933Z,28.13
2018-07-09T19:34:58.649Z,28.10
2018-07-09T19:37:02.386Z,28.06
2018-07-09T19:39:06.791Z,28.03
2018-07-09T19:41:10.631Z,28.01
2018-07-09T19:43:14.267Z,27.98
2018-07-09T19:45:17.881Z,27.95
2018-07-09T19:47:21.496Z,27.88
2018-07-09T19:49:25.414Z,27.84
2018-07-09T19:51:28.966Z,27.82
2018-07-09T19:53:32.587Z,27.80
2018-07-09T19:55:36.449Z,27.79
2018-07-09T19:57:39.947Z,27.76
2018-07-09T19:59:43.782Z,27.74
2018-07-09T20:01:47.387Z,27.73
2018-07-09T20:03:51.003Z,27.71
2018-07-09T20:05:54.610Z,27.67
2018-07-09T20:07:58.462Z,27.62
2018-07-09T20:10:07.146Z,27.56
2018-07-09T20:12:15.851Z,27.52
2018-07-09T20:14:24.609Z,27.47
2018-07-09T20:16:33.390Z,27.44
2018-07-09T20:18:37.000Z,27.37
2018-07-09T20:20:40.573Z,27.33
2018-07-09T20:22:44.136Z,27.31
2018-07-09T20:24:47.749Z,27.29
2018-07-09T20:26:51.415Z,27.28
2018-07-09T20:28:55.058Z,27.22
2018-07-09T20:30:58.658Z,27.17
2018-07-09T20:33:02.240Z,27.11
2018-07-09T20:35:05.797Z,27.04
2018-07-09T20:37:09.424Z,26.98
2018-07-09T20:39:13.098Z,26.93
2018-07-09T20:41:16.812Z,26.91
2018-07-09T20:43:20.419Z,26.89
2018-07-09T20:45:24.285Z,26.85
2018-07-09T20:47:28.069Z,26.82
2018-07-09T20:49:31.683Z,26.80
2018-07-09T20:51:35.294Z,26.76
2018-07-09T20:53:38.889Z,26.74
2018-07-09T20:55:42.486Z,26.72
2018-07-09T20:57:46.105Z,26.68
2018-07-09T20:59:49.975Z,26.62
2018-07-09T21:01:53.610Z,26.56
2018-07-09T21:04:02.253Z,26.47
2018-07-09T21:06:05.944Z,26.41
2018-07-09T21:08:09.556Z,26.34
2018-07-09T21:10:13.207Z,26.29
2018-07-09T21:12:16.801Z,26.27
2018-07-09T21:14:20.382Z,26.25
2018-07-09T21:16:24.099Z,26.22
2018-07-09T21:18:27.664Z,26.20
2018-07-09T21:20:31.244Z,26.24
2018-07-09T21:22:34.795Z,26.28
2018-07-09T21:24:38.390Z,26.30
2018-07-09T21:26:41.965Z,26.34
2018-07-09T21:28:45.588Z,26.33
2018-07-09T21:30:50.106Z,26.32
2018-07-09T21:32:53.708Z,26.30
2018-07-09T21:34:57.322Z,26.26
2018-07-09T21:37:00.883Z,26.26
2018-07-09T21:39:05.170Z,26.25
2018-07-09T21:41:08.872Z,26.24
2018-07-09T21:43:12.454Z,26.23
2018-07-09T21:45:16.063Z,26.24
2018-07-09T21:47:19.641Z,26.23
2018-07-09T21:49:23.217Z,26.25
2018-07-09T21:51:26.808Z,26.25
2018-07-09T21:53:30.423Z,26.24
2018-07-09T21:55:33.994Z,26.24
2018-07-09T21:57:37.558Z,26.25
2018-07-09T21:59:41.129Z,26.23
2018-07-09T22:01:44.730Z,26.19
2018-07-09T22:03:48.313Z,26.15
2018-07-09T22:05:51.875Z,26.14
2018-07-09T22:07:55.435Z,26.10
2018-07-09T22:09:59.260Z,26.05
2018-07-09T22:12:02.733Z,25.99
2018-07-09T22:14:06.389Z,25.95
2018-07-09T22:16:09.949Z,25.90
2018-07-09T22:18:13.529Z,25.85
2018-07-09T22:20:17.101Z,25.82
2018-07-09T22:22:20.739Z,25.78
2018-07-09T22:24:24.388Z,25.77
2018-07-09T22:26:27.974Z,25.73
2018-07-09T22:28:31.561Z,25.71
2018-07-09T22:30:36.925Z,25.70
2018-07-09T22:32:42.273Z,25.65
2018-07-09T22:34:47.665Z,25.61
2018-07-09T22:36:53.089Z,25.57
2018-07-09T22:38:58.397Z,25.53
2018-07-09T22:41:03.748Z,25.50
2018-07-09T22:44:19.609Z,25.47
2018-07-09T22:46:24.648Z,25.33
2018-07-09T22:48:29.893Z,25.28
2018-07-09T22:50:35.259Z,25.25
2018-07-09T22:52:40.665Z,25.20
2018-07-09T22:54:46.046Z,25.15
2018-07-09T22:56:52.043Z,25.10
2018-07-09T22:58:57.409Z,25.06
2018-07-09T23:01:03.338Z,25.00
2018-07-09T23:03:14.307Z,24.94
2018-07-09T23:05:19.647Z,24.88
2018-07-09T23:07:25.078Z,24.82
2018-07-09T23:10:11.910Z,24.77
2018-07-09T23:13:17.871Z,24.67
2018-07-09T23:17:44.969Z,24.59
2018-07-09T23:22:07.990Z,24.47
2018-07-09T23:24:12.098Z,24.41
2018-07-09T23:26:15.748Z,24.40
2018-07-09T23:28:19.306Z,24.40
2018-07-09T23:30:22.921Z,24.41
2018-07-09T23:32:26.508Z,24.41
2018-07-09T23:34:30.066Z,24.39
2018-07-09T23:36:33.649Z,24.41
2018-07-09T23:38:37.535Z,24.43
2018-07-09T23:40:41.255Z,24.44
2018-07-09T23:42:44.735Z,24.45
2018-07-09T23:44:48.340Z,24.45
2018-07-09T23:46:52.177Z,24.49
2018-07-09T23:48:55.643Z,24.55
2018-07-09T23:50:59.249Z,24.61
2018-07-09T23:53:02.812Z,24.66
2018-07-09T23:55:06.634Z,24.69
2018-07-09T23:58:32.884Z,24.73
